createdAt,value
2018-10-19T00:00:10.913Z,56.93
2018-10-19T00:01:45.720Z,52.23
2018-10-19T00:03:20.558Z,57.17
2018-10-19T00:04:55.415Z,52.80
2018-10-19T00:06:30.184Z,50.77
2018-10-19T00:08:05.537Z,56.03
2018-10-19T00:09:40.403Z,56.50
2018-10-19T00:11:15.406Z,51.37
2018-10-19T00:12:50.096Z,55.80
2018-10-19T00:14:24.935Z,58.47
2018-10-19T00:15:59.783Z,54.37
2018-10-19T00:17:34.603Z,58.50
2018-10-19T00:19:09.792Z,58.00
2018-10-19T00:20:44.982Z,54.77
2018-10-19T00:22:19.795Z,49.40
2018-10-19T00:23:54.661Z,52.37
2018-10-19T00:25:29.568Z,54.60
2018-10-19T00:27:04.572Z,54.00
2018-10-19T00:28:39.404Z,44.77
2018-10-19T00:30:15.252Z,52.13
2018-10-19T00:31:50.238Z,51.00
2018-10-19T00:33:25.064Z,53.30
2018-10-19T00:34:59.905Z,53.80
2018-10-19T00:36:34.803Z,50.47
2018-10-19T00:38:09.639Z,51.40
2018-10-19T00:39:44.493Z,49.93
2018-10-19T00:41:19.372Z,54.83
2018-10-19T00:42:54.316Z,49.40
2018-10-19T00:44:29.140Z,49.73
2018-10-19T00:46:03.994Z,50.97
2018-10-19T00:47:38.882Z,54.43
2018-10-19T00:49:13.762Z,54.20
2018-10-19T00:50:48.714Z,48.90
2018-10-19T00:52:23.729Z,48.03
2018-10-19T00:53:58.584Z,49.73
2018-10-19T00:55:33.449Z,49.47
2018-10-19T00:57:08.345Z,51.10
2018-10-19T00:58:43.152Z,51.67
2018-10-19T01:00:18.023Z,49.23
2018-10-19T01:01:52.810Z,49.83
2018-10-19T01:03:27.608Z,46.30
2018-10-19T01:05:02.633Z,50.60
2018-10-19T01:06:37.423Z,52.07
2018-10-19T01:08:12.231Z,51.03
2018-10-19T01:09:47.075Z,50.03
2018-10-19T01:11:21.937Z,50.80
2018-10-19T01:12:57.974Z,49.90
2018-10-19T01:14:32.776Z,54.77
2018-10-19T01:16:07.740Z,56.93
2018-10-19T01:17:42.578Z,54.80
2018-10-19T01:19:17.359Z,53.60
2018-10-19T01:20:52.207Z,50.83
2018-10-19T01:22:27.039Z,59.23
2018-10-19T01:24:02.007Z,54.10
2018-10-19T01:25:40.480Z,51.20
2018-10-19T01:27:15.468Z,53.10
2018-10-19T01:28:50.252Z,54.57
2018-10-19T01:30:25.126Z,53.43
2018-10-19T01:32:00.079Z,49.97
2018-10-19T01:33:34.906Z,56.63
2018-10-19T01:35:11.596Z,48.13
2018-10-19T01:36:46.568Z,47.50
2018-10-19T01:38:21.436Z,51.00
2018-10-19T01:39:56.260Z,50.07
2018-10-19T01:41:31.062Z,49.87
2018-10-19T01:43:05.874Z,52.17
2018-10-19T01:44:40.691Z,51.13
2018-10-19T01:46:15.545Z,55.73
2018-10-19T01:47:50.417Z,58.20
2018-10-19T01:49:25.245Z,53.63
2018-10-19T01:51:00.142Z,52.70
2018-10-19T01:52:34.917Z,50.63
2018-10-19T01:54:09.843Z,54.30
2018-10-19T01:55:44.748Z,51.40
2018-10-19T01:57:19.943Z,56.80
2018-10-19T01:58:54.811Z,57.90
2018-10-19T02:00:29.602Z,60.57
2018-10-19T02:02:04.841Z,64.13
2018-10-19T02:03:39.655Z,60.07
2018-10-19T02:05:14.684Z,57.83
2018-10-19T02:06:49.609Z,53.30
2018-10-19T02:08:24.411Z,52.73
2018-10-19T02:09:59.198Z,55.07
2018-10-19T02:11:34.030Z,57.73
2018-10-19T02:13:09.636Z,59.53
2018-10-19T02:14:44.460Z,54.00
2018-10-19T02:16:19.284Z,51.93
2018-10-19T02:17:54.127Z,52.50
2018-10-19T02:19:29.131Z,54.67
2018-10-19T02:21:04.056Z,57.53
2018-10-19T02:22:39.488Z,57.70
2018-10-19T02:24:14.318Z,60.13
2018-10-19T02:25:49.226Z,59.67
2018-10-19T02:27:24.022Z,60.10
2018-10-19T02:28:58.896Z,59.60
2018-10-19T02:30:33.664Z,53.27
2018-10-19T02:32:08.495Z,55.20
2018-10-19T02:33:43.323Z,57.53
2018-10-19T02:35:18.215Z,55.93
2018-10-19T02:36:53.096Z,53.27
2018-10-19T02:38:28.096Z,54.47
2018-10-19T02:40:03.141Z,59.47
2018-10-19T02:41:38.023Z,55.23
2018-10-19T02:43:13.637Z,58.83
2018-10-19T02:44:48.495Z,52.57
2018-10-19T02:46:23.437Z,54.57
2018-10-19T02:47:58.272Z,58.70
2018-10-19T02:49:33.117Z,57.80
2018-10-19T02:51:08.140Z,58.90
2018-10-19T02:52:43.000Z,62.43
2018-10-19T02:54:17.797Z,61.80
2018-10-19T02:55:52.608Z,73.57
2018-10-19T02:57:27.485Z,64.87
2018-10-19T02:59:02.329Z,61.27
2018-10-19T03:00:37.211Z,62.50
2018-10-19T03:02:12.031Z,71.50
2018-10-19T03:03:46.893Z,63.47
2018-10-19T03:05:21.771Z,67.73
2018-10-19T03:06:57.253Z,68.13
2018-10-19T03:08:32.017Z,64.07
2018-10-19T03:10:07.277Z,61.50
2018-10-19T03:11:42.144Z,64.67
2018-10-19T03:13:16.871Z,60.57
2018-10-19T03:14:51.750Z,62.43
2018-10-19T03:16:26.811Z,66.00
2018-10-19T03:18:01.671Z,68.60
2018-10-19T03:19:36.559Z,64.40
2018-10-19T03:21:11.523Z,64.67
2018-10-19T03:22:46.351Z,63.13
2018-10-19T03:24:21.175Z,79.87
2018-10-19T03:25:56.027Z,68.47
2018-10-19T03:27:30.919Z,64.97
2018-10-19T03:29:05.903Z,66.03
2018-10-19T03:30:40.817Z,69.93
2018-10-19T03:32:15.686Z,65.97
2018-10-19T03:33:50.552Z,63.13
2018-10-19T03:35:25.509Z,60.90
2018-10-19T03:37:00.422Z,66.90
2018-10-19T03:38:35.230Z,59.30
2018-10-19T03:40:10.053Z,71.57
2018-10-19T03:41:44.909Z,64.27
2018-10-19T03:43:19.785Z,63.73
2018-10-19T03:44:54.594Z,71.07
2018-10-19T03:46:29.306Z,63.67
2018-10-19T03:48:04.879Z,63.27
2018-10-19T03:49:39.686Z,64.57
2018-10-19T03:51:14.621Z,60.73
2018-10-19T03:52:49.672Z,59.73
2018-10-19T03:54:24.481Z,62.17
2018-10-19T03:55:59.369Z,68.77
2018-10-19T03:57:34.383Z,64.97
2018-10-19T03:59:09.208Z,69.53
2018-10-19T04:00:43.996Z,67.03
2018-10-19T04:02:18.850Z,64.33
2018-10-19T04:03:53.630Z,60.23
2018-10-19T04:05:28.480Z,62.70
2018-10-19T04:07:03.337Z,73.93
2018-10-19T04:08:38.133Z,66.80
2018-10-19T04:10:12.932Z,64.53
2018-10-19T04:11:47.895Z,65.20
2018-10-19T04:13:22.731Z,65.30
2018-10-19T04:14:57.586Z,58.60
2018-10-19T04:16:32.340Z,71.43
2018-10-19T04:18:07.202Z,72.63
2018-10-19T04:19:41.983Z,62.57
2018-10-19T04:21:16.832Z,64.20
2018-10-19T04:22:55.939Z,68.40
2018-10-19T04:24:30.725Z,62.27
2018-10-19T04:26:05.933Z,64.30
2018-10-19T04:27:40.943Z,63.87
2018-10-19T04:29:15.854Z,65.33
2018-10-19T04:30:50.615Z,57.87
2018-10-19T04:32:25.471Z,61.07
2018-10-19T04:34:00.282Z,67.70
2018-10-19T04:35:35.129Z,64.53
2018-10-19T04:37:09.940Z,67.97
2018-10-19T04:38:44.782Z,62.97
2018-10-19T04:40:21.379Z,67.60
2018-10-19T04:41:56.339Z,64.63
2018-10-19T04:43:31.055Z,62.30
2018-10-19T04:45:06.537Z,68.90
2018-10-19T04:46:41.291Z,66.33
2018-10-19T04:48:16.208Z,63.40
2018-10-19T04:49:50.989Z,57.83
2018-10-19T04:51:25.805Z,67.20
2018-10-19T04:53:00.663Z,58.67
2018-10-19T04:54:35.548Z,63.57
2018-10-19T04:56:10.385Z,60.77
2018-10-19T04:57:45.903Z,63.23
2018-10-19T04:59:20.707Z,64.60
2018-10-19T05:00:55.603Z,67.67
2018-10-19T05:02:30.474Z,64.83
2018-10-19T05:04:05.913Z,71.13
2018-10-19T05:05:40.749Z,65.90
2018-10-19T05:07:15.549Z,77.13
2018-10-19T05:08:50.371Z,66.73
2018-10-19T05:10:25.160Z,72.43
2018-10-19T05:11:59.975Z,67.77
2018-10-19T05:13:34.895Z,71.37
2018-10-19T05:15:10.844Z,65.87
2018-10-19T05:16:45.792Z,65.37
2018-10-19T05:18:20.640Z,60.43
2018-10-19T05:19:55.537Z,79.60
2018-10-19T05:21:30.310Z,92.70
2018-10-19T05:23:05.623Z,69.97
2018-10-19T05:24:40.455Z,70.73
2018-10-19T05:26:15.405Z,61.17
2018-10-19T05:27:50.211Z,57.93
2018-10-19T05:29:25.043Z,52.90
2018-10-19T05:30:59.846Z,53.40
2018-10-19T05:32:34.654Z,56.23
2018-10-19T05:34:09.498Z,54.97
2018-10-19T05:35:44.347Z,61.00
2018-10-19T05:37:19.255Z,68.93
2018-10-19T05:38:54.171Z,79.07
2018-10-19T05:40:29.042Z,70.17
2018-10-19T05:42:03.898Z,68.17
2018-10-19T05:43:38.824Z,80.27
2018-10-19T05:45:13.658Z,68.03
2018-10-19T05:46:48.448Z,65.40
2018-10-19T05:48:23.378Z,66.77
2018-10-19T05:49:58.237Z,64.37
2018-10-19T05:51:33.236Z,64.03
2018-10-19T05:53:08.236Z,61.70
2018-10-19T05:54:42.958Z,59.87
2018-10-19T05:56:18.032Z,63.40
2018-10-19T05:57:52.832Z,63.27
2018-10-19T05:59:27.687Z,62.30
2018-10-19T06:01:02.545Z,58.13
2018-10-19T06:02:37.461Z,58.23
2018-10-19T06:04:13.026Z,60.57
2018-10-19T06:05:47.930Z,57.90
2018-10-19T06:07:22.773Z,63.73
2018-10-19T06:08:57.687Z,58.93
2018-10-19T06:10:32.553Z,58.90
2018-10-19T06:12:07.684Z,60.70
2018-10-19T06:13:42.632Z,62.87
2018-10-19T06:15:17.480Z,73.90
2018-10-19T06:16:52.419Z,72.13
2018-10-19T06:18:27.204Z,61.93
2018-10-19T06:20:02.099Z,54.37
2018-10-19T06:21:36.942Z,66.93
2018-10-19T06:23:11.816Z,68.20
2018-10-19T06:24:46.723Z,73.13
2018-10-19T06:26:21.815Z,78.37
2018-10-19T06:27:56.679Z,64.47
2018-10-19T06:29:31.600Z,72.70
2018-10-19T06:31:06.438Z,72.50
2018-10-19T06:32:41.306Z,74.63
2018-10-19T06:34:16.157Z,70.90
2018-10-19T06:35:51.158Z,72.40
2018-10-19T06:37:26.016Z,74.13
2018-10-19T06:39:01.161Z,74.93
2018-10-19T06:40:36.017Z,78.03
2018-10-19T06:42:10.841Z,63.27
2018-10-19T06:43:45.785Z,70.60
2018-10-19T06:45:20.589Z,66.57
2018-10-19T06:46:55.535Z,71.10
2018-10-19T06:48:30.456Z,71.73
2018-10-19T06:50:07.492Z,71.67
2018-10-19T06:51:42.444Z,66.17
2018-10-19T06:53:17.355Z,67.53
2018-10-19T06:54:52.189Z,66.60
2018-10-19T06:56:27.133Z,72.97
2018-10-19T06:58:02.030Z,63.87
2018-10-19T06:59:36.892Z,68.47
2018-10-19T07:01:11.688Z,60.47
2018-10-19T07:02:51.687Z,67.70
2018-10-19T07:04:26.611Z,69.63
2018-10-19T07:06:01.489Z,64.73
2018-10-19T07:07:36.574Z,61.27
2018-10-19T07:09:11.508Z,75.07
2018-10-19T07:10:46.330Z,61.00
2018-10-19T07:12:21.219Z,65.63
2018-10-19T07:13:56.076Z,81.83
2018-10-19T07:15:30.959Z,63.87
2018-10-19T07:17:05.939Z,63.57
2018-10-19T07:18:40.711Z,64.03
2018-10-19T07:20:15.602Z,72.47
2018-10-19T07:21:50.369Z,69.27
2018-10-19T07:23:25.336Z,64.53
2018-10-19T07:25:00.376Z,72.40
2018-10-19T07:26:35.218Z,81.03
2018-10-19T07:28:10.099Z,64.63
2018-10-19T07:29:45.026Z,68.53
2018-10-19T07:31:19.924Z,73.83
2018-10-19T07:32:54.844Z,70.70
2018-10-19T07:34:29.735Z,68.87
2018-10-19T07:36:04.768Z,64.10
2018-10-19T07:37:39.586Z,69.87
2018-10-19T07:39:14.395Z,71.23
2018-10-19T07:40:49.316Z,64.83
2018-10-19T07:42:24.554Z,69.47
2018-10-19T07:43:59.313Z,69.70
2018-10-19T07:45:34.188Z,70.37
2018-10-19T07:47:09.101Z,73.53
2018-10-19T07:48:43.859Z,71.00
2018-10-19T07:50:18.743Z,72.03
2018-10-19T07:51:53.561Z,67.07
2018-10-19T07:53:28.391Z,66.70
2018-10-19T07:55:03.272Z,67.53
2018-10-19T07:56:38.071Z,63.77
2018-10-19T07:58:12.921Z,70.13
2018-10-19T07:59:47.809Z,68.80
2018-10-19T08:01:22.617Z,60.90
2018-10-19T08:02:57.392Z,68.87
2018-10-19T08:04:32.294Z,65.40
2018-10-19T08:06:07.146Z,66.73
2018-10-19T08:07:41.961Z,67.20
2018-10-19T08:09:16.764Z,64.83
2018-10-19T08:10:51.594Z,66.17
2018-10-19T08:12:26.397Z,61.40
2018-10-19T08:14:01.251Z,69.00
2018-10-19T08:15:36.043Z,68.87
2018-10-19T08:17:10.940Z,71.43
2018-10-19T08:18:45.732Z,71.63
2018-10-19T08:20:20.695Z,79.40
2018-10-19T08:21:55.554Z,86.80
2018-10-19T08:23:30.372Z,86.13
2018-10-19T08:25:08.643Z,92.60
2018-10-19T08:26:43.487Z,98.40
2018-10-19T08:28:18.322Z,110.20
2018-10-19T08:29:53.202Z,102.43
2018-10-19T08:31:28.073Z,100.83
2018-10-19T08:33:03.166Z,119.70
2018-10-19T08:34:38.129Z,99.83
2018-10-19T08:36:12.933Z,89.00
2018-10-19T08:37:47.727Z,95.40
2018-10-19T08:39:22.699Z,90.77
2018-10-19T08:40:57.579Z,99.73
2018-10-19T08:42:32.449Z,97.10
2018-10-19T08:44:07.250Z,98.57
2018-10-19T08:45:42.096Z,98.53
2018-10-19T08:47:16.947Z,87.50
2018-10-19T08:48:51.748Z,90.57
2018-10-19T08:50:26.641Z,92.83
2018-10-19T08:52:02.183Z,85.97
2018-10-19T08:53:37.234Z,92.93
2018-10-19T08:55:12.127Z,99.07
2018-10-19T08:56:46.928Z,88.77
2018-10-19T08:58:22.014Z,85.77
2018-10-19T08:59:56.866Z,93.93
2018-10-19T09:01:31.730Z,96.23
2018-10-19T09:03:06.603Z,90.57
2018-10-19T09:04:41.430Z,89.63
2018-10-19T09:06:16.354Z,90.53
2018-10-19T09:07:51.298Z,87.17
2018-10-19T09:09:26.127Z,83.80
2018-10-19T09:11:01.104Z,83.37
2018-10-19T09:12:36.017Z,90.93
2018-10-19T09:14:52.469Z,85.47
2018-10-19T09:16:27.372Z,86.27
2018-10-19T09:18:02.326Z,85.23
2018-10-19T09:19:37.135Z,81.47
2018-10-19T09:21:12.078Z,80.77
2018-10-19T09:22:46.853Z,83.90
2018-10-19T09:24:21.667Z,79.00
2018-10-19T09:25:56.540Z,79.93
2018-10-19T09:27:31.352Z,82.10
2018-10-19T09:29:06.176Z,77.47
2018-10-19T09:30:41.014Z,82.60
2018-10-19T09:32:16.296Z,77.03
2018-10-19T09:33:51.217Z,76.33
2018-10-19T09:35:26.067Z,81.13
2018-10-19T09:37:01.079Z,71.03
2018-10-19T09:38:35.855Z,81.77
2018-10-19T09:40:10.739Z,75.47
2018-10-19T09:41:45.602Z,77.10
2018-10-19T09:43:21.084Z,81.80
2018-10-19T09:44:56.024Z,79.97
2018-10-19T09:46:30.842Z,77.13
2018-10-19T09:48:05.695Z,74.97
2018-10-19T09:49:40.518Z,81.87
2018-10-19T09:51:15.408Z,79.90
2018-10-19T09:52:50.228Z,78.70
2018-10-19T09:54:25.081Z,83.73
2018-10-19T09:55:59.957Z,86.67
2018-10-19T09:57:34.736Z,78.70
2018-10-19T09:59:09.653Z,82.37
2018-10-19T10:00:49.663Z,77.63
2018-10-19T10:02:24.502Z,85.37
2018-10-19T10:03:59.428Z,80.23
2018-10-19T10:05:34.238Z,79.93
2018-10-19T10:07:09.131Z,79.87
2018-10-19T10:08:43.902Z,82.37
2018-10-19T10:10:18.787Z,81.23
2018-10-19T10:11:53.691Z,84.20
2018-10-19T10:13:28.511Z,82.10
2018-10-19T10:15:03.468Z,81.37
2018-10-19T10:16:38.323Z,78.43
2018-10-19T10:18:13.234Z,84.97
2018-10-19T10:19:48.130Z,79.27
2018-10-19T10:21:22.985Z,89.00
2018-10-19T10:22:57.801Z,80.27
2018-10-19T10:24:32.658Z,82.53
2018-10-19T10:26:07.561Z,84.87
2018-10-19T10:27:42.369Z,87.00
2018-10-19T10:29:17.377Z,88.67
2018-10-19T10:30:52.201Z,81.20
2018-10-19T10:32:27.382Z,84.40
2018-10-19T10:34:02.613Z,85.20
2018-10-19T10:35:37.438Z,89.73
2018-10-19T10:37:12.473Z,83.17
2018-10-19T10:38:47.329Z,84.87
2018-10-19T10:40:22.106Z,89.73
2018-10-19T10:41:56.995Z,93.43
2018-10-19T10:43:31.953Z,85.73
2018-10-19T10:45:07.112Z,88.03
2018-10-19T10:46:41.974Z,78.67
2018-10-19T10:48:16.812Z,84.17
2018-10-19T10:49:51.746Z,83.10
2018-10-19T10:51:26.802Z,84.17
2018-10-19T10:53:01.723Z,89.87
2018-10-19T10:54:36.586Z,80.00
2018-10-19T10:56:11.409Z,85.83
2018-10-19T10:57:46.258Z,90.23
2018-10-19T10:59:21.096Z,83.10
2018-10-19T11:00:55.951Z,90.33
2018-10-19T11:02:30.830Z,89.90
2018-10-19T11:04:05.704Z,92.97
2018-10-19T11:05:40.489Z,91.77
2018-10-19T11:07:15.481Z,83.03
2018-10-19T11:08:50.262Z,85.37
2018-10-19T11:10:25.482Z,87.80
2018-10-19T11:12:00.515Z,84.73
2018-10-19T11:13:35.626Z,83.07
2018-10-19T11:15:10.584Z,85.00
2018-10-19T11:16:45.468Z,86.63
2018-10-19T11:18:20.492Z,85.37
2018-10-19T11:19:55.352Z,87.70
2018-10-19T11:21:30.243Z,84.77
2018-10-19T11:23:05.451Z,88.40
2018-10-19T11:24:40.279Z,85.83
2018-10-19T11:26:15.086Z,78.27
2018-10-19T11:27:50.004Z,88.27
2018-10-19T11:29:24.815Z,84.50
2018-10-19T11:30:59.796Z,81.67
2018-10-19T11:32:34.657Z,85.90
2018-10-19T11:34:09.557Z,80.53
2018-10-19T11:35:44.383Z,86.10
2018-10-19T11:37:19.493Z,87.93
2018-10-19T11:38:54.437Z,90.70
2018-10-19T11:40:33.949Z,90.33
2018-10-19T11:42:09.025Z,91.30
2018-10-19T11:43:43.987Z,97.80
2018-10-19T11:45:18.895Z,98.77
2018-10-19T11:46:53.759Z,95.03
2018-10-19T11:48:28.623Z,88.33
2018-10-19T11:50:03.503Z,95.03
2018-10-19T11:51:38.313Z,94.17
2018-10-19T11:53:13.168Z,95.77
2018-10-19T11:54:48.020Z,94.27
2018-10-19T11:56:23.046Z,98.53
2018-10-19T11:57:58.155Z,94.00
2018-10-19T11:59:33.125Z,92.70
2018-10-19T12:01:07.992Z,88.37
2018-10-19T12:02:43.472Z,91.67
2018-10-19T12:04:18.332Z,95.43
2018-10-19T12:05:53.174Z,94.90
2018-10-19T12:07:28.013Z,99.00
2018-10-19T12:09:02.800Z,99.80
2018-10-19T12:10:37.901Z,98.10
2018-10-19T12:12:12.707Z,104.13
2018-10-19T12:13:47.609Z,100.67
2018-10-19T12:15:22.427Z,100.07
2018-10-19T12:16:57.472Z,98.53
2018-10-19T12:18:32.264Z,91.47
2018-10-19T12:20:08.787Z,85.97
2018-10-19T12:21:43.650Z,93.60
2018-10-19T12:23:18.668Z,87.33
2018-10-19T12:24:53.595Z,97.20
2018-10-19T12:26:28.507Z,95.13
2018-10-19T12:28:03.370Z,94.30
2018-10-19T12:29:38.210Z,93.13
2018-10-19T12:31:13.146Z,100.93
2018-10-19T12:32:48.046Z,94.30
2018-10-19T12:34:23.017Z,101.00
2018-10-19T12:35:57.878Z,82.27
2018-10-19T12:37:32.687Z,94.67
2018-10-19T12:39:09.062Z,91.73
2018-10-19T12:40:44.089Z,92.13
2018-10-19T12:42:19.005Z,87.17
2018-10-19T12:43:53.953Z,87.20
2018-10-19T12:46:52.322Z,89.87
2018-10-19T12:48:27.191Z,87.53
2018-10-19T12:50:02.060Z,87.93
2018-10-19T12:51:37.161Z,91.90
2018-10-19T12:53:12.017Z,87.67
2018-10-19T12:54:46.947Z,90.90
2018-10-19T12:56:22.336Z,87.60
2018-10-19T12:57:57.224Z,88.63
2018-10-19T12:59:32.104Z,86.50
2018-10-19T13:01:07.238Z,89.43
2018-10-19T13:02:42.028Z,87.17
2018-10-19T13:04:16.861Z,87.77
2018-10-19T13:05:51.717Z,88.00
2018-10-19T13:07:26.629Z,83.53
2018-10-19T13:09:01.555Z,83.57
2018-10-19T13:10:36.376Z,82.20
2018-10-19T13:12:11.182Z,85.90
2018-10-19T13:13:46.017Z,77.50
2018-10-19T13:15:20.887Z,85.40
2018-10-19T13:16:55.797Z,81.73
2018-10-19T13:18:32.596Z,78.30
2018-10-19T13:20:08.870Z,78.40
2018-10-19T13:21:44.214Z,84.27
2018-10-19T13:23:19.222Z,80.37
2018-10-19T13:24:54.115Z,78.90
2018-10-19T13:26:29.033Z,76.87
2018-10-19T13:28:03.861Z,78.33
2018-10-19T13:29:38.731Z,71.33
2018-10-19T13:31:13.590Z,76.93
2018-10-19T13:32:48.442Z,78.23
2018-10-19T13:34:23.593Z,71.70
2018-10-19T13:35:58.454Z,66.80
2018-10-19T13:37:33.250Z,76.90
2018-10-19T13:39:09.548Z,71.73
2018-10-19T13:40:44.392Z,69.03
2018-10-19T13:42:19.255Z,67.97
2018-10-19T13:43:54.151Z,69.77
2018-10-19T13:45:29.045Z,66.07
2018-10-19T13:47:03.932Z,66.80
2018-10-19T13:48:38.704Z,71.37
2018-10-19T13:50:13.584Z,62.77
2018-10-19T13:51:48.411Z,69.03
2018-10-19T13:53:23.311Z,63.67
2018-10-19T13:54:58.170Z,71.80
2018-10-19T13:56:33.396Z,68.23
2018-10-19T13:58:08.232Z,65.53
2018-10-19T13:59:43.132Z,57.95
2018-10-19T14:01:17.971Z,64.20
2018-10-19T14:02:53.047Z,64.43
2018-10-19T14:04:27.958Z,65.47
2018-10-19T14:06:02.818Z,63.67
2018-10-19T14:07:38.014Z,63.63
2018-10-19T14:09:12.893Z,68.13
2018-10-19T14:10:48.409Z,59.53
2018-10-19T14:12:23.265Z,64.10
2018-10-19T14:13:58.335Z,61.70
2018-10-19T14:15:33.158Z,56.33
2018-10-19T14:17:08.070Z,62.70
2018-10-19T14:18:42.955Z,61.05
2018-10-19T14:20:17.840Z,64.63
2018-10-19T14:21:52.779Z,62.57
2018-10-19T14:23:27.616Z,64.37
2018-10-19T14:25:02.807Z,65.73
2018-10-19T14:26:37.700Z,63.37
2018-10-19T14:28:12.504Z,71.53
2018-10-19T14:29:47.448Z,69.47
2018-10-19T14:31:22.382Z,66.40
2018-10-19T14:32:57.393Z,69.27
2018-10-19T14:34:32.328Z,67.00
2018-10-19T14:36:07.259Z,75.13
2018-10-19T14:37:43.445Z,72.90
2018-10-19T14:39:18.266Z,70.03
2018-10-19T14:40:53.061Z,71.60
2018-10-19T14:42:27.968Z,76.93
2018-10-19T14:44:02.763Z,76.87
2018-10-19T14:45:37.760Z,74.07
2018-10-19T14:47:12.634Z,73.30
2018-10-19T14:48:47.427Z,76.23
2018-10-19T14:50:22.347Z,68.33
2018-10-19T14:51:57.215Z,78.57
2018-10-19T14:53:32.089Z,70.80
2018-10-19T14:55:09.158Z,71.97
2018-10-19T14:56:44.814Z,70.63
2018-10-19T14:58:19.614Z,70.13
2018-10-19T14:59:54.684Z,73.20
2018-10-19T15:01:29.523Z,76.47
2018-10-19T15:03:04.438Z,73.27
2018-10-19T15:04:39.257Z,69.47
2018-10-19T15:06:14.109Z,69.40
2018-10-19T15:07:49.074Z,70.00
2018-10-19T15:09:24.140Z,65.63
2018-10-19T15:10:59.086Z,70.33
2018-10-19T15:12:33.809Z,67.87
2018-10-19T15:14:08.663Z,67.27
2018-10-19T15:15:43.537Z,72.30
2018-10-19T15:17:18.379Z,67.10
2018-10-19T15:18:53.218Z,67.77
2018-10-19T15:20:28.124Z,69.17
2018-10-19T15:22:03.038Z,71.60
2018-10-19T15:23:37.847Z,72.10
2018-10-19T15:25:12.947Z,70.80
2018-10-19T15:26:47.994Z,74.17
2018-10-19T15:28:22.892Z,72.13
2018-10-19T15:29:57.920Z,71.37
2018-10-19T15:31:32.731Z,72.37
2018-10-19T15:33:07.683Z,77.43
2018-10-19T15:34:42.539Z,70.47
2018-10-19T15:36:17.463Z,71.33
2018-10-19T15:37:52.404Z,70.47
2018-10-19T15:39:27.221Z,73.87
2018-10-19T15:41:02.088Z,71.97
2018-10-19T15:42:36.911Z,77.17
2018-10-19T15:44:12.112Z,65.87
2018-10-19T15:45:53.612Z,66.60
2018-10-19T15:47:30.656Z,78.40
2018-10-19T15:49:05.576Z,84.07
2018-10-19T15:50:40.431Z,76.77
2018-10-19T15:52:15.333Z,69.90
2018-10-19T15:53:50.307Z,72.80
2018-10-19T15:55:25.234Z,71.40
2018-10-19T15:57:00.118Z,68.97
2018-10-19T15:58:35.204Z,68.93
2018-10-19T16:00:10.537Z,78.43
2018-10-19T16:01:45.434Z,83.70
2018-10-19T16:03:20.234Z,84.53
2018-10-19T16:04:55.096Z,72.07
2018-10-19T16:06:29.982Z,73.43
2018-10-19T16:08:04.920Z,77.23
2018-10-19T16:09:39.720Z,69.87
2018-10-19T16:11:14.572Z,76.80
2018-10-19T16:12:49.476Z,73.83
2018-10-19T16:14:24.321Z,75.10
2018-10-19T16:15:59.149Z,87.37
2018-10-19T16:17:34.087Z,74.70
2018-10-19T16:19:09.076Z,78.23
2018-10-19T16:20:43.937Z,80.03
2018-10-19T16:22:19.076Z,74.47
2018-10-19T16:23:54.036Z,89.30
2018-10-19T16:25:28.835Z,82.03
2018-10-19T16:27:03.690Z,83.60
2018-10-19T16:28:38.556Z,87.83
2018-10-19T16:30:13.585Z,79.23
2018-10-19T16:31:48.392Z,82.97
2018-10-19T16:33:23.226Z,80.00
2018-10-19T16:34:58.278Z,87.70
2018-10-19T16:36:33.187Z,85.83
2018-10-19T16:38:07.991Z,88.23
2018-10-19T16:39:43.066Z,79.63
2018-10-19T16:41:17.927Z,81.07
2018-10-19T16:42:52.826Z,77.97
2018-10-19T16:44:28.154Z,82.30
2018-10-19T16:46:03.066Z,84.30
2018-10-19T16:47:37.934Z,80.10
2018-10-19T16:49:19.459Z,84.33
2018-10-19T16:50:54.297Z,86.57
2018-10-19T16:52:29.407Z,89.90
2018-10-19T16:54:08.855Z,83.40
2018-10-19T16:55:43.611Z,84.70
2018-10-19T16:57:18.485Z,89.57
2018-10-19T16:58:53.609Z,86.47
2018-10-19T17:00:28.440Z,87.07
2018-10-19T17:02:03.308Z,91.17
2018-10-19T17:03:38.297Z,82.07
2018-10-19T17:05:13.186Z,85.63
2018-10-19T17:06:48.063Z,96.00
2018-10-19T17:08:22.964Z,87.37
2018-10-19T17:09:57.757Z,90.13
2018-10-19T17:11:32.596Z,92.87
2018-10-19T17:13:07.441Z,99.27
2018-10-19T17:14:42.261Z,91.00
2018-10-19T17:16:17.159Z,98.37
2018-10-19T17:17:52.019Z,92.67
2018-10-19T17:19:26.926Z,87.97
2018-10-19T17:21:01.863Z,85.57
2018-10-19T17:22:37.167Z,94.00
2018-10-19T17:24:12.138Z,101.43
2018-10-19T17:25:46.984Z,93.40
2018-10-19T17:27:21.846Z,94.93
2018-10-19T17:28:56.736Z,92.53
2018-10-19T17:30:31.565Z,93.00
2018-10-19T17:32:06.397Z,97.37
2018-10-19T17:33:41.380Z,96.70
2018-10-19T17:35:16.263Z,117.60
2018-10-19T17:36:51.122Z,102.37
2018-10-19T17:38:26.056Z,104.70
2018-10-19T17:40:01.083Z,91.53
2018-10-19T17:41:36.022Z,105.43
2018-10-19T17:43:10.870Z,111.83
2018-10-19T17:44:45.909Z,99.50
2018-10-19T17:46:20.803Z,101.20
2018-10-19T17:47:55.684Z,99.77
2018-10-19T17:49:30.912Z,95.83
2018-10-19T17:51:05.922Z,95.70
2018-10-19T17:52:40.838Z,104.20
2018-10-19T17:54:15.917Z,100.70
2018-10-19T17:55:50.706Z,115.40
2018-10-19T17:57:25.616Z,102.43
2018-10-19T17:59:00.511Z,94.97
2018-10-19T18:00:35.328Z,100.20
2018-10-19T18:02:10.327Z,107.60
2018-10-19T18:03:45.170Z,103.80
2018-10-19T18:05:20.054Z,124.90
2018-10-19T18:06:55.105Z,113.67
2018-10-19T18:08:30.009Z,103.67
2018-10-19T18:10:04.968Z,95.00
2018-10-19T18:11:40.294Z,102.27
2018-10-19T18:13:15.087Z,104.07
2018-10-19T18:14:49.957Z,105.17
2018-10-19T18:16:24.849Z,93.50
2018-10-19T18:17:59.750Z,100.93
2018-10-19T18:19:34.600Z,100.73
2018-10-19T18:21:09.581Z,99.60
2018-10-19T18:22:44.481Z,100.43
2018-10-19T18:24:19.287Z,98.53
2018-10-19T18:25:54.203Z,98.83
2018-10-19T18:27:30.136Z,101.83
2018-10-19T18:29:05.387Z,100.23
2018-10-19T18:30:40.303Z,94.87
2018-10-19T18:32:15.520Z,99.37
2018-10-19T18:33:50.398Z,105.10
2018-10-19T18:35:25.802Z,104.07
2018-10-19T18:37:03.568Z,98.40
2018-10-19T18:38:40.433Z,99.07
2018-10-19T18:40:15.475Z,104.07
2018-10-19T18:41:50.586Z,101.20
2018-10-19T18:43:25.561Z,102.87
2018-10-19T18:45:00.494Z,104.70
2018-10-19T18:46:35.548Z,101.70
2018-10-19T18:48:10.466Z,103.57
2018-10-19T18:49:46.772Z,109.07
2018-10-19T18:51:21.614Z,105.23
2018-10-19T18:52:56.492Z,104.33
2018-10-19T18:54:31.489Z,107.87
2018-10-19T18:56:06.474Z,109.17
2018-10-19T18:57:41.530Z,104.97
2018-10-19T18:59:16.548Z,104.67
2018-10-19T19:00:51.448Z,104.87
2018-10-19T19:02:26.304Z,106.50
2018-10-19T19:04:01.192Z,105.27
2018-10-19T19:05:36.143Z,97.67
2018-10-19T19:07:11.040Z,106.17
2018-10-19T19:08:46.007Z,115.83
2018-10-19T19:10:20.917Z,119.33
2018-10-19T19:11:55.827Z,103.10
2018-10-19T19:13:32.016Z,115.60
2018-10-19T19:15:07.491Z,103.73
2018-10-19T19:16:42.509Z,114.10
2018-10-19T19:18:17.433Z,108.53
2018-10-19T19:19:57.990Z,105.40
2018-10-19T19:21:33.272Z,103.53
2018-10-19T19:23:08.228Z,113.17
2018-10-19T19:25:46.000Z,116.03
2018-10-19T19:27:20.945Z,123.53
2018-10-19T19:28:56.213Z,119.73
2018-10-19T19:30:32.922Z,115.33
2018-10-19T19:32:08.312Z,118.10
2018-10-19T19:33:48.923Z,118.43
2018-10-19T19:35:23.791Z,116.33
2018-10-19T19:36:58.876Z,117.13
2018-10-19T19:38:34.071Z,110.83
2018-10-19T19:40:08.900Z,118.03
2018-10-19T19:41:49.007Z,115.60
2018-10-19T19:43:24.099Z,110.10
2018-10-19T19:44:58.971Z,114.10
2018-10-19T19:46:34.147Z,106.77
2018-10-19T19:48:14.522Z,116.07
2018-10-19T19:49:49.506Z,106.37
2018-10-19T19:51:24.343Z,109.87
2018-10-19T19:52:59.284Z,112.60
2018-10-19T19:54:34.109Z,106.43
2018-10-19T19:56:09.066Z,111.43
2018-10-19T19:57:44.015Z,110.30
2018-10-19T19:59:18.973Z,113.70
2018-10-19T20:00:53.972Z,106.47
2018-10-19T20:02:28.951Z,111.47
2018-10-19T20:04:04.064Z,115.90
2018-10-19T20:05:38.905Z,113.50
2018-10-19T20:07:13.842Z,127.00
2018-10-19T20:08:48.842Z,109.60
2018-10-19T20:10:23.732Z,116.13
2018-10-19T20:11:58.548Z,111.07
2018-10-19T20:13:33.598Z,119.90
2018-10-19T20:15:09.461Z,113.80
2018-10-19T20:16:44.372Z,115.07
2018-10-19T20:18:19.364Z,112.67
2018-10-19T20:19:54.391Z,108.93
2018-10-19T20:21:29.516Z,115.77